createdAt,value
2019-01-20T00:02:17.331Z,-3.77
2019-01-20T00:04:48.153Z,-3.81
2019-01-20T00:07:18.945Z,-3.76
2019-01-20T00:09:49.712Z,-3.71
2019-01-20T00:12:20.536Z,-3.77
2019-01-20T00:14:51.287Z,-3.87
2019-01-20T00:17:22.121Z,-4.00
2019-01-20T00:19:52.901Z,-3.99
2019-01-20T00:22:23.781Z,-3.93
2019-01-20T00:24:54.662Z,-3.91
2019-01-20T00:27:25.449Z,-4.00
2019-01-20T00:29:56.261Z,-4.07
2019-01-20T00:32:27.547Z,-4.12
2019-01-20T00:34:58.359Z,-4.19
2019-01-20T00:37:29.168Z,-4.21
2019-01-20T00:39:59.965Z,-4.06
2019-01-20T00:42:30.770Z,-4.11
2019-01-20T00:45:02.972Z,-4.10
2019-01-20T00:47:34.080Z,-4.12
2019-01-20T00:50:06.155Z,-4.25
2019-01-20T00:52:36.920Z,-4.30
2019-01-20T00:55:10.382Z,-4.28
2019-01-20T00:57:41.793Z,-4.34
2019-01-20T01:00:26.800Z,-4.39
2019-01-20T01:02:57.809Z,-4.45
2019-01-20T01:05:29.061Z,-4.46
2019-01-20T01:08:00.051Z,-4.48
2019-01-20T01:10:30.868Z,-4.50
2019-01-20T01:13:04.772Z,-4.58
2019-01-20T01:15:35.669Z,-4.47
2019-01-20T01:18:06.640Z,-4.45
2019-01-20T01:20:37.428Z,-4.42
2019-01-20T01:23:08.215Z,-4.44
2019-01-20T01:25:39.048Z,-4.40
2019-01-20T01:28:09.800Z,-4.39
2019-01-20T01:30:40.599Z,-4.48
2019-01-20T01:33:11.414Z,-4.55
2019-01-20T01:35:42.193Z,-4.63
2019-01-20T01:38:12.997Z,-4.63
2019-01-20T01:40:43.802Z,-4.68
2019-01-20T01:43:14.590Z,-4.70
2019-01-20T01:45:45.500Z,-4.75
2019-01-20T01:48:16.307Z,-4.79
2019-01-20T01:50:47.116Z,-4.83
2019-01-20T01:53:17.887Z,-4.85
2019-01-20T01:55:48.680Z,-4.82
2019-01-20T01:58:19.459Z,-4.86
2019-01-20T02:00:50.312Z,-4.90
2019-01-20T02:03:21.132Z,-4.93
2019-01-20T02:05:51.940Z,-4.97
2019-01-20T02:08:22.797Z,-4.97
2019-01-20T02:10:53.586Z,-4.97
2019-01-20T02:13:24.316Z,-5.00
2019-01-20T02:15:55.106Z,-5.03
2019-01-20T02:18:25.889Z,-5.02
2019-01-20T02:20:56.724Z,-5.04
2019-01-20T02:23:27.517Z,-5.06
2019-01-20T02:25:58.276Z,-5.05
2019-01-20T02:28:29.072Z,-5.10
2019-01-20T02:30:59.828Z,-5.09
2019-01-20T02:33:30.642Z,-5.13
2019-01-20T02:36:02.106Z,-5.17
2019-01-20T02:38:32.910Z,-5.12
2019-01-20T02:41:03.692Z,-5.17
2019-01-20T02:43:34.524Z,-5.17
2019-01-20T02:46:05.300Z,-5.09
2019-01-20T02:48:37.279Z,-5.14
2019-01-20T02:51:08.042Z,-5.12
2019-01-20T02:53:38.846Z,-5.13
2019-01-20T02:56:09.626Z,-5.11
2019-01-20T02:58:40.428Z,-5.12
2019-01-20T03:01:11.196Z,-5.16
2019-01-20T03:03:42.273Z,-5.20
2019-01-20T03:06:13.084Z,-5.17
2019-01-20T03:08:43.884Z,-5.14
2019-01-20T03:11:14.732Z,-5.10
2019-01-20T03:13:45.552Z,-5.02
2019-01-20T03:16:16.314Z,-4.97
2019-01-20T03:18:47.512Z,-4.96
2019-01-20T03:21:18.294Z,-4.96
2019-01-20T03:23:49.119Z,-5.05
2019-01-20T03:26:19.890Z,-5.15
2019-01-20T03:28:50.683Z,-5.24
2019-01-20T03:31:21.453Z,-5.28
2019-01-20T03:33:52.246Z,-5.28
2019-01-20T03:36:23.032Z,-5.21
2019-01-20T03:38:53.820Z,-5.28
2019-01-20T03:41:24.592Z,-5.17
2019-01-20T03:43:55.339Z,-5.18
2019-01-20T03:46:26.170Z,-5.17
2019-01-20T03:48:56.946Z,-5.25
2019-01-20T03:51:27.797Z,-5.35
2019-01-20T03:53:58.611Z,-5.39
2019-01-20T03:56:29.421Z,-5.43
2019-01-20T03:59:00.337Z,-5.38
2019-01-20T04:01:31.259Z,-5.30
2019-01-20T04:04:02.085Z,-5.27
2019-01-20T04:06:32.883Z,-5.36
2019-01-20T04:09:08.939Z,-5.33
2019-01-20T04:11:39.703Z,-5.34
2019-01-20T04:14:10.530Z,-5.38
2019-01-20T04:16:41.352Z,-5.34
2019-01-20T04:19:14.046Z,-5.39
2019-01-20T04:21:44.911Z,-5.36
2019-01-20T04:24:16.208Z,-5.41
2019-01-20T04:26:50.051Z,-5.42
2019-01-20T04:29:27.997Z,-5.44
2019-01-20T04:32:05.249Z,-5.51
2019-01-20T04:34:37.687Z,-5.51
2019-01-20T04:37:19.147Z,-5.50
2019-01-20T04:39:55.267Z,-5.56
2019-01-20T04:42:29.136Z,-5.56
2019-01-20T04:45:13.943Z,-5.36
2019-01-20T04:47:50.035Z,-5.42
2019-01-20T04:50:32.234Z,-5.46
2019-01-20T04:53:08.667Z,-5.52
2019-01-20T04:55:45.161Z,-5.47
2019-01-20T04:58:24.508Z,-5.38
2019-01-20T05:01:02.395Z,-5.39
2019-01-20T05:03:36.184Z,-5.43
2019-01-20T05:06:09.607Z,-5.61
2019-01-20T05:08:42.721Z,-5.62
2019-01-20T05:11:17.613Z,-5.79
2019-01-20T05:13:48.608Z,-5.89
2019-01-20T05:16:23.847Z,-5.91
2019-01-20T05:19:05.667Z,-5.90
2019-01-20T05:21:39.943Z,-5.74
2019-01-20T05:24:13.950Z,-5.64
2019-01-20T05:26:44.722Z,-5.54
2019-01-20T05:29:21.354Z,-5.47
2019-01-20T05:31:57.220Z,-5.57
2019-01-20T05:34:30.278Z,-5.61
2019-01-20T05:37:03.030Z,-5.52
2019-01-20T05:39:44.070Z,-5.47
2019-01-20T05:42:11.255Z,-5.50
2019-01-20T05:44:44.936Z,-5.58
2019-01-20T05:47:16.041Z,-5.57
2019-01-20T05:49:49.196Z,-5.57
2019-01-20T05:52:23.230Z,-5.71
2019-01-20T05:55:02.663Z,-5.76
2019-01-20T05:57:39.329Z,-5.85
2019-01-20T06:00:24.111Z,-5.76
2019-01-20T06:02:58.226Z,-5.71
2019-01-20T06:05:32.102Z,-5.72
2019-01-20T06:08:09.937Z,-5.77
2019-01-20T06:10:40.833Z,-5.83
2019-01-20T06:13:22.241Z,-5.77
2019-01-20T06:15:54.123Z,-5.81
2019-01-20T06:18:27.122Z,-5.71
2019-01-20T06:21:00.090Z,-5.72
2019-01-20T06:23:35.686Z,-5.85
2019-01-20T06:26:11.034Z,-5.96
2019-01-20T06:28:42.503Z,-6.09
2019-01-20T06:31:13.926Z,-6.18
2019-01-20T06:33:44.956Z,-6.20
2019-01-20T06:36:19.081Z,-6.21
2019-01-20T06:39:00.945Z,-6.23
2019-01-20T06:41:32.356Z,-6.22
2019-01-20T06:44:06.404Z,-6.23
2019-01-20T06:46:43.426Z,-6.23
2019-01-20T06:49:15.945Z,-6.22
2019-01-20T06:51:48.749Z,-6.21
2019-01-20T06:54:19.523Z,-6.21
2019-01-20T06:56:51.498Z,-6.23
2019-01-20T06:59:22.863Z,-6.24
2019-01-20T07:01:54.102Z,-6.24
2019-01-20T07:04:25.571Z,-6.19
2019-01-20T07:06:57.923Z,-6.15
2019-01-20T07:09:29.198Z,-6.17
2019-01-20T07:12:05.734Z,-6.13
2019-01-20T07:14:40.216Z,-6.08
2019-01-20T07:17:11.968Z,-6.04
2019-01-20T07:19:43.337Z,-6.00
2019-01-20T07:22:14.652Z,-5.98
2019-01-20T07:24:47.915Z,-5.95
2019-01-20T07:27:20.501Z,-5.91
2019-01-20T07:29:56.183Z,-5.88
2019-01-20T07:32:27.521Z,-5.82
2019-01-20T07:34:58.695Z,-5.81
2019-01-20T07:37:29.541Z,-5.78
2019-01-20T07:40:00.434Z,-5.75
2019-01-20T07:42:31.153Z,-5.69
2019-01-20T07:45:01.929Z,-5.62
2019-01-20T07:47:32.896Z,-5.55
2019-01-20T07:50:04.259Z,-5.52
2019-01-20T07:52:36.551Z,-5.47
2019-01-20T07:55:08.769Z,-5.44
2019-01-20T07:57:47.321Z,-5.39
2019-01-20T08:00:21.350Z,-5.27
2019-01-20T08:02:52.149Z,-5.12
2019-01-20T08:05:23.210Z,-4.98
2019-01-20T08:07:54.101Z,-4.83
2019-01-20T08:10:34.105Z,-4.76
2019-01-20T08:13:06.294Z,-4.71
2019-01-20T08:15:37.081Z,-4.66
2019-01-20T08:18:07.917Z,-4.64
2019-01-20T08:20:40.578Z,-4.60
2019-01-20T08:23:11.449Z,-4.59
2019-01-20T08:25:42.296Z,-4.54
2019-01-20T08:28:13.160Z,-4.46
2019-01-20T08:30:44.017Z,-4.40
2019-01-20T08:33:14.939Z,-4.36
2019-01-20T08:35:45.749Z,-4.32
2019-01-20T08:38:16.604Z,-4.27
2019-01-20T08:40:47.476Z,-4.23
2019-01-20T08:43:18.267Z,-4.28
2019-01-20T08:46:59.256Z,-4.26
2019-01-20T08:49:30.065Z,-4.30
2019-01-20T08:52:00.885Z,-4.20
2019-01-20T08:54:31.714Z,-4.18
2019-01-20T08:57:02.493Z,-4.06
2019-01-20T08:59:33.340Z,-4.01
2019-01-20T09:02:04.367Z,-3.91
2019-01-20T09:04:35.267Z,-3.85
2019-01-20T09:07:06.476Z,-3.83
2019-01-20T09:09:37.476Z,-3.73
2019-01-20T09:12:08.359Z,-3.67
2019-01-20T09:14:47.832Z,-3.61
2019-01-20T09:17:26.974Z,-3.54
2019-01-20T09:20:04.121Z,-3.46
2019-01-20T09:22:31.085Z,-3.47
2019-01-20T09:25:03.748Z,-3.38
2019-01-20T09:28:08.082Z,-3.36
2019-01-20T09:30:27.503Z,-3.31
2019-01-20T09:32:58.430Z,-3.20
2019-01-20T09:35:31.772Z,-3.16
2019-01-20T09:38:03.184Z,-3.08
2019-01-20T09:40:36.514Z,-3.01
2019-01-20T09:43:07.535Z,-2.96
2019-01-20T09:45:38.448Z,-2.92
2019-01-20T09:48:09.235Z,-2.88
2019-01-20T09:50:40.089Z,-2.81
2019-01-20T09:53:11.001Z,-2.74
2019-01-20T09:55:42.952Z,-2.69
2019-01-20T09:58:13.840Z,-2.62
2019-01-20T10:00:44.728Z,-2.58
2019-01-20T10:03:16.313Z,-2.48
2019-01-20T10:05:47.298Z,-2.43
2019-01-20T10:08:18.251Z,-2.38
2019-01-20T10:10:49.119Z,-2.29
2019-01-20T10:13:20.042Z,-2.21
2019-01-20T10:15:52.381Z,-2.18
2019-01-20T11:56:12.980Z,-0.46
2019-01-20T11:58:52.539Z,-0.49
2019-01-20T12:01:23.415Z,-0.48
2019-01-20T12:03:54.295Z,-0.45
2019-01-20T12:06:30.707Z,-0.44
2019-01-20T12:09:06.811Z,-0.49
2019-01-20T12:11:39.385Z,-0.42
2019-01-20T12:14:13.909Z,-0.40
2019-01-20T12:16:44.963Z,-0.37
2019-01-20T12:19:20.143Z,-0.27
2019-01-20T12:21:55.227Z,-0.24
2019-01-20T12:24:28.836Z,-0.21
2019-01-20T12:27:02.449Z,-0.18
2019-01-20T12:29:40.745Z,-0.12
2019-01-20T12:32:13.366Z,-0.01
2019-01-20T12:34:46.474Z,0.05
2019-01-20T12:37:22.439Z,0.05
2019-01-20T12:39:55.907Z,0.07
2019-01-20T12:42:26.942Z,0.00
2019-01-20T12:45:00.251Z,0.05
2019-01-20T12:47:47.105Z,0.05
2019-01-20T12:50:18.711Z,0.06
2019-01-20T12:52:52.968Z,0.08
2019-01-20T12:55:26.958Z,0.15
2019-01-20T12:57:58.546Z,0.15
2019-01-20T13:00:29.794Z,0.12
2019-01-20T13:03:02.771Z,0.12
2019-01-20T13:05:33.661Z,0.10
2019-01-20T13:08:06.587Z,0.23
2019-01-20T13:10:55.136Z,0.18
2019-01-20T13:13:26.207Z,0.14
2019-01-20T13:16:00.618Z,0.06
2019-01-20T13:18:31.896Z,0.08
2019-01-20T13:21:05.119Z,0.06
2019-01-20T13:23:36.223Z,0.15
2019-01-20T13:26:07.122Z,0.14
2019-01-20T13:28:39.850Z,0.17
2019-01-20T13:31:13.233Z,0.18
2019-01-20T13:33:44.470Z,0.15
2019-01-20T13:36:15.447Z,0.30
2019-01-20T13:38:46.619Z,0.27
2019-01-20T13:41:30.924Z,0.28
2019-01-20T13:44:07.545Z,0.34
2019-01-20T13:46:38.622Z,0.31
2019-01-20T13:49:12.331Z,0.30
2019-01-20T13:51:43.406Z,0.35
2019-01-20T13:54:15.591Z,0.31
2019-01-20T13:56:46.482Z,0.25
2019-01-20T14:00:42.203Z,0.26
2019-01-20T14:03:13.280Z,0.28
2019-01-20T14:05:47.618Z,0.24
2019-01-20T14:08:20.626Z,0.25
2019-01-20T14:10:54.570Z,0.19
2019-01-20T14:13:44.777Z,0.18
2019-01-20T14:16:11.890Z,0.08
2019-01-20T14:18:45.321Z,0.09
2019-01-20T14:21:19.004Z,0.09
2019-01-20T14:23:51.059Z,0.05
2019-01-20T14:26:21.916Z,0.02
2019-01-20T14:28:52.794Z,0.23
2019-01-20T14:31:25.934Z,0.06
2019-01-20T14:33:59.182Z,0.02
2019-01-20T14:36:30.304Z,-0.04
2019-01-20T14:39:08.760Z,-0.07
2019-01-20T14:41:56.398Z,-0.10
2019-01-20T14:44:30.066Z,-0.13
2019-01-20T14:47:04.636Z,-0.11
2019-01-20T14:49:42.405Z,-0.10
2019-01-20T14:52:34.782Z,-0.11
2019-01-20T14:55:07.370Z,-0.02
2019-01-20T14:57:42.932Z,-0.11
2019-01-20T15:00:29.124Z,-0.20
2019-01-20T15:03:03.806Z,-0.32
2019-01-20T15:05:42.098Z,-0.29
2019-01-20T15:08:18.278Z,-0.37
2019-01-20T15:10:51.274Z,-0.50
2019-01-20T15:13:23.858Z,-0.61
2019-01-20T15:15:58.098Z,-0.71
2019-01-20T15:18:47.935Z,-0.73
2019-01-20T15:21:56.385Z,-0.74
2019-01-20T15:24:45.279Z,-0.88
2019-01-20T15:27:23.132Z,-0.92
2019-01-20T15:30:00.197Z,-0.96
2019-01-20T15:32:31.385Z,-1.01
2019-01-20T15:35:05.293Z,-1.02
2019-01-20T15:37:43.467Z,-1.01
2019-01-20T15:40:19.711Z,-1.02
2019-01-20T15:42:51.012Z,-1.08
2019-01-20T15:45:25.928Z,-1.10
2019-01-20T15:48:02.882Z,-1.16
2019-01-20T15:50:34.621Z,-1.22
2019-01-20T15:53:05.814Z,-1.23
2019-01-20T15:55:40.077Z,-1.10
2019-01-20T15:58:12.955Z,-1.01
2019-01-20T16:00:48.217Z,-1.07
2019-01-20T16:03:23.214Z,-1.14
2019-01-20T16:06:18.693Z,-1.27
2019-01-20T16:08:49.673Z,-1.29
2019-01-20T16:11:44.908Z,-1.32
2019-01-20T16:14:21.069Z,-1.36
2019-01-20T16:16:55.433Z,-1.45
2019-01-20T16:19:41.239Z,-1.62
2019-01-20T16:22:17.720Z,-1.74
2019-01-20T16:24:49.114Z,-1.88
2019-01-20T16:27:24.801Z,-1.80
2019-01-20T16:30:03.189Z,-1.86
2019-01-20T16:32:37.649Z,-1.84
2019-01-20T16:35:15.937Z,-1.81
2019-01-20T16:38:00.169Z,-1.89
2019-01-20T16:40:52.177Z,-2.01
2019-01-20T16:43:26.085Z,-1.99
2019-01-20T16:45:59.289Z,-2.03
2019-01-20T16:48:32.692Z,-2.03
2019-01-20T16:51:03.943Z,-1.87
2019-01-20T16:53:34.847Z,-1.86
2019-01-20T16:56:06.433Z,-1.79
2019-01-20T16:58:40.481Z,-1.78
2019-01-20T17:01:17.105Z,-1.81
2019-01-20T17:03:48.211Z,-1.82
2019-01-20T17:06:22.741Z,-1.87
2019-01-20T17:08:58.657Z,-1.92
2019-01-20T17:11:34.435Z,-1.94
2019-01-20T17:14:06.540Z,-2.01
2019-01-20T17:16:50.929Z,-2.00
2019-01-20T17:19:19.655Z,-2.01
2019-01-20T17:21:53.298Z,-2.05
2019-01-20T17:24:26.424Z,-2.17
2019-01-20T17:26:58.553Z,-2.23
2019-01-20T17:29:30.187Z,-2.18
2019-01-20T17:32:01.332Z,-2.17
2019-01-20T17:34:32.559Z,-2.11
2019-01-20T17:37:03.738Z,-2.19
2019-01-20T17:39:34.817Z,-2.20
2019-01-20T17:42:06.033Z,-2.27
2019-01-20T17:44:40.616Z,-2.26
2019-01-20T17:47:22.662Z,-2.33
2019-01-20T17:49:53.834Z,-2.40
2019-01-20T17:52:24.725Z,-2.48
2019-01-20T17:54:57.223Z,-2.52
2019-01-20T17:57:28.422Z,-2.59
2019-01-20T17:59:59.653Z,-2.67
2019-01-20T18:02:30.671Z,-2.69
2019-01-20T18:05:01.906Z,-2.80
2019-01-20T18:07:32.968Z,-2.86
2019-01-20T18:10:05.859Z,-2.88
2019-01-20T18:12:38.589Z,-2.91
2019-01-20T18:15:12.528Z,-2.94
2019-01-20T18:17:43.587Z,-2.98
2019-01-20T18:20:19.604Z,-3.01
2019-01-20T18:22:51.605Z,-2.98
2019-01-20T18:25:23.010Z,-2.98
2019-01-20T18:27:55.008Z,-2.95
2019-01-20T18:30:28.334Z,-2.95
2019-01-20T18:32:59.320Z,-2.95
2019-01-20T18:35:30.548Z,-2.97
2019-01-20T18:38:01.553Z,-2.88
2019-01-20T18:40:32.425Z,-2.86
2019-01-20T18:43:03.344Z,-2.78
2019-01-20T18:45:34.760Z,-2.77
2019-01-20T18:48:06.219Z,-2.78
2019-01-20T18:50:39.028Z,-2.77
2019-01-20T18:53:10.264Z,-2.88
2019-01-20T18:55:41.372Z,-2.81
2019-01-20T18:58:12.316Z,-2.71
2019-01-20T19:00:50.445Z,-2.73
2019-01-20T19:03:21.491Z,-2.77
2019-01-20T19:05:52.541Z,-2.66
2019-01-20T19:08:23.524Z,-2.74
2019-01-20T19:10:54.584Z,-2.66
2019-01-20T19:13:25.548Z,-2.76
2019-01-20T19:15:56.489Z,-2.77
2019-01-20T19:18:27.368Z,-2.73
2019-01-20T19:20:58.299Z,-2.80
2019-01-20T19:23:29.191Z,-2.80
2019-01-20T19:26:00.052Z,-2.80
2019-01-20T19:28:30.891Z,-2.87
2019-01-20T19:31:01.709Z,-2.74
2019-01-20T19:33:32.681Z,-2.85
2019-01-20T19:36:03.712Z,-2.70
2019-01-20T19:38:34.529Z,-2.86
2019-01-20T19:41:05.328Z,-2.82
2019-01-20T19:43:36.792Z,-2.80
2019-01-20T19:46:07.852Z,-2.92
2019-01-20T19:48:38.699Z,-2.90
2019-01-20T19:51:09.589Z,-2.89
2019-01-20T19:53:40.447Z,-2.85
2019-01-20T19:56:11.424Z,-2.83
2019-01-20T19:58:42.272Z,-2.88
2019-01-20T20:01:13.141Z,-2.71
2019-01-20T20:03:44.056Z,-2.70
2019-01-20T20:06:14.920Z,-2.66
2019-01-20T20:08:45.759Z,-2.69
2019-01-20T20:11:16.625Z,-2.69
2019-01-20T20:13:47.545Z,-2.52
2019-01-20T20:16:23.310Z,-2.44
2019-01-20T20:18:50.935Z,-2.20
2019-01-20T20:21:21.773Z,-2.06
2019-01-20T20:23:52.609Z,-2.08
2019-01-20T20:26:23.584Z,-2.01
2019-01-20T20:28:54.625Z,-2.18
2019-01-20T20:31:25.812Z,-2.58
2019-01-20T20:33:56.811Z,-2.60
2019-01-20T20:36:27.593Z,-2.53
2019-01-20T20:38:58.396Z,-2.30
2019-01-20T20:41:29.341Z,-2.16
2019-01-20T20:44:00.263Z,-2.35
2019-01-20T20:46:31.033Z,-1.92
2019-01-20T20:49:01.845Z,-1.81
2019-01-20T20:51:32.627Z,-1.95
2019-01-20T20:54:03.465Z,-1.99
2019-01-20T20:56:34.229Z,-1.90
2019-01-20T20:59:05.181Z,-1.92
2019-01-20T21:01:36.100Z,-1.79
2019-01-20T21:04:07.015Z,-1.97
2019-01-20T21:06:37.882Z,-2.12
2019-01-20T21:09:11.010Z,-2.31
2019-01-20T21:11:41.865Z,-1.97
2019-01-20T21:14:12.699Z,-2.01
2019-01-20T21:16:43.492Z,-2.39
2019-01-20T21:19:14.268Z,-2.53
2019-01-20T21:21:45.096Z,-2.41
2019-01-20T21:24:15.910Z,-2.17
2019-01-20T21:26:46.799Z,-2.29
2019-01-20T21:29:17.646Z,-2.04
2019-01-20T21:31:48.523Z,-2.01
2019-01-20T21:34:19.583Z,-1.98
2019-01-20T21:36:51.150Z,-1.90
2019-01-20T21:39:22.027Z,-1.97
2019-01-20T21:41:52.903Z,-2.03
2019-01-20T21:44:23.738Z,-1.98
2019-01-20T21:46:54.545Z,-1.86
2019-01-20T21:49:25.412Z,-1.92
2019-01-20T21:51:56.334Z,-1.95
2019-01-20T21:54:27.151Z,-2.12
2019-01-20T21:56:57.990Z,-2.13
2019-01-20T21:59:28.802Z,-2.03
2019-01-20T22:01:59.635Z,-2.04
2019-01-20T22:04:30.491Z,-2.08
2019-01-20T22:07:01.295Z,-2.21
2019-01-20T22:09:32.175Z,-2.03
2019-01-20T22:12:03.172Z,-1.91
2019-01-20T22:14:34.019Z,-1.82
2019-01-20T22:17:04.817Z,-1.99
2019-01-20T22:19:35.614Z,-2.15
2019-01-20T22:22:06.416Z,-2.25
2019-01-20T22:24:37.234Z,-2.43
2019-01-20T22:27:08.071Z,-2.28
2019-01-20T22:29:38.854Z,-1.93
2019-01-20T22:32:09.698Z,-1.99
2019-01-20T22:34:40.697Z,-1.90
2019-01-20T22:37:11.494Z,-2.01
2019-01-20T22:39:42.310Z,-1.95
2019-01-20T22:42:13.094Z,-1.95
2019-01-20T22:44:43.966Z,-2.06
2019-01-20T22:47:14.747Z,-2.20
2019-01-20T22:49:45.562Z,-2.10
2019-01-20T22:52:16.355Z,-2.26
2019-01-20T22:54:47.186Z,-2.53
2019-01-20T22:57:17.943Z,-2.46
2019-01-20T22:59:48.756Z,-2.20
2019-01-20T23:02:19.527Z,-2.18
2019-01-20T23:04:50.330Z,-2.19
2019-01-20T23:07:21.218Z,-2.21
2019-01-20T23:09:52.043Z,-2.25
2019-01-20T23:12:22.802Z,-2.29
2019-01-20T23:14:53.678Z,-2.32
2019-01-20T23:17:24.854Z,-2.39
2019-01-20T23:19:55.624Z,-2.37
2019-01-20T23:22:26.477Z,-2.44
2019-01-20T23:24:57.356Z,-2.47
2019-01-20T23:27:28.180Z,-2.48
2019-01-20T23:29:59.012Z,-2.47
2019-01-20T23:32:29.818Z,-2.46
2019-01-20T23:35:00.686Z,-2.50
2019-01-20T23:37:31.520Z,-2.52
2019-01-20T23:40:02.309Z,-2.55
2019-01-20T23:42:33.122Z,-2.52
2019-01-20T23:45:04.537Z,-2.55
2019-01-20T23:47:35.386Z,-2.59
2019-01-20T23:50:08.350Z,-2.62
2019-01-20T23:52:39.204Z,-2.64
2019-01-20T23:55:11.142Z,-2.67
2019-01-20T23:57:44.193Z,-2.62
